Time;durP1;ratioP1;P1;durP2;ratioP2;P2;SDS_P1;SDS_P2;PMS_P1;PMS_P2;Temp;Humidity;BMP_temperature;BMP_pressure;BME280_temperature;BME280_humidity;BME280_pressure;Samples;Min_cycle;Max_cycle;Signal;HPM_P1;HPM_P2
2023/03/15 00:00:46;;;;;;;14.02;10.85;;;;;;;3.95;87.87;101111.09;5046415;28;20044;-40
2023/03/15 00:03:13;;;;;;;16.45;11.20;;;;;;;3.97;88.57;101103.44;5034184;28;20104;-40
2023/03/15 00:05:42;;;;;;;15.93;10.77;;;;;;;3.89;89.18;101112.09;5050167;28;20039;-41
2023/03/15 00:08:07;;;;;;;14.77;10.88;;;;;;;3.98;89.56;101110.59;5069836;28;20063;-40
2023/03/15 00:10:33;;;;;;;13.93;10.80;;;;;;;4.00;88.46;101099.38;5059555;28;20025;-41
2023/03/15 00:12:58;;;;;;;16.13;10.85;;;;;;;3.98;88.00;101099.63;5046439;28;20112;-40
2023/03/15 00:15:23;;;;;;;16.15;11.40;;;;;;;3.89;88.67;101099.25;5049632;28;20029;-40
2023/03/15 00:17:48;;;;;;;16.05;11.40;;;;;;;3.83;89.38;101100.28;5039814;28;20026;-40
2023/03/15 00:20:14;;;;;;;14.70;10.90;;;;;;;3.81;90.23;101105.16;5055572;28;20052;-40
2023/03/15 00:22:41;;;;;;;17.52;11.30;;;;;;;3.77;89.78;101104.03;5037840;28;20064;-40
2023/03/15 00:25:07;;;;;;;14.18;10.73;;;;;;;3.73;89.62;101103.69;5045845;28;20037;-40
2023/03/15 00:27:32;;;;;;;14.98;11.00;;;;;;;3.67;89.92;101106.63;5033578;28;20033;-40
2023/03/15 00:29:57;;;;;;;14.68;10.70;;;;;;;3.51;90.06;101080.97;5048211;28;20029;-40
2023/03/15 00:32:22;;;;;;;13.73;10.75;;;;;;;3.60;90.04;101098.59;5031186;28;20132;-40
2023/03/15 00:34:48;;;;;;;14.65;11.02;;;;;;;3.55;90.40;101102.09;5036099;28;20025;-41
2023/03/15 00:37:18;;;;;;;13.95;10.88;;;;;;;3.55;91.03;101110.31;5033546;28;20029;-40
2023/03/15 00:39:44;;;;;;;17.05;11.50;;;;;;;3.55;90.86;101113.03;5045778;28;20017;-40
2023/03/15 00:42:10;;;;;;;15.68;11.65;;;;;;;3.64;92.23;101102.47;5037178;28;20026;-41
2023/03/15 00:44:36;;;;;;;15.43;11.32;;;;;;;3.67;91.64;101112.91;5042667;28;20059;-41
2023/03/15 00:47:01;;;;;;;15.27;11.10;;;;;;;3.72;90.97;101103.94;5033504;28;20061;-41
2023/03/15 00:49:26;;;;;;;14.88;11.00;;;;;;;3.77;91.05;101097.72;5036906;28;20435;-40
2023/03/15 00:51:54;;;;;;;15.43;11.10;;;;;;;3.86;90.94;101096.19;5053102;28;20037;-40
2023/03/15 00:54:22;;;;;;;17.13;11.50;;;;;;;3.95;90.49;101096.59;5039087;28;20449;-41
2023/03/15 00:56:48;;;;;;;16.30;11.95;;;;;;;4.01;90.28;101096.38;5069769;28;20119;-40
2023/03/15 00:59:13;;;;;;;17.08;11.82;;;;;;;3.98;90.49;101105.09;5047134;28;20159;-40
2023/03/15 01:01:43;;;;;;;15.95;11.77;;;;;;;4.05;91.01;101113.13;5043379;28;20041;-41
2023/03/15 01:04:08;;;;;;;16.30;11.70;;;;;;;4.08;91.28;101111.78;5033647;28;20025;-40
2023/03/15 01:06:34;;;;;;;17.02;11.63;;;;;;;4.13;90.95;101114.56;5035194;28;20035;-40
2023/03/15 01:09:00;;;;;;;16.67;12.13;;;;;;;4.17;91.14;101111.06;5032955;28;20076;-40
2023/03/15 01:11:26;;;;;;;16.67;12.10;;;;;;;4.13;91.22;101118.16;5043655;28;20041;-40
2023/03/15 01:13:54;;;;;;;17.05;12.20;;;;;;;4.03;91.46;101118.03;5032854;28;20048;-40
2023/03/15 01:16:20;;;;;;;18.00;12.13;;;;;;;4.07;90.85;101138.31;5035386;28;20397;-40
2023/03/15 01:18:45;;;;;;;16.13;11.70;;;;;;;3.98;91.97;101132.47;5049174;28;20032;-41
2023/03/15 01:21:13;;;;;;;17.83;11.80;;;;;;;3.94;91.91;101138.72;5043483;28;20136;-40
2023/03/15 01:23:39;;;;;;;16.77;11.93;;;;;;;3.99;92.43;101150.56;5032554;28;20029;-40
2023/03/15 01:26:07;;;;;;;16.92;11.60;;;;;;;4.16;93.08;101150.47;5034949;28;20091;-40
2023/03/15 01:28:32;;;;;;;15.85;11.57;;;;;;;4.31;91.19;101165.44;5048828;28;20115;-40
2023/03/15 01:30:58;;;;;;;17.02;11.60;;;;;;;4.44;91.38;101162.31;5043427;28;20449;-41
2023/03/15 01:33:23;;;;;;;15.05;11.05;;;;;;;4.50;88.34;101174.16;5030064;28;20026;-40
2023/03/15 01:35:58;;;;;;;14.23;10.98;;;;;;;4.41;86.30;101160.09;5033145;28;20026;-41
2023/03/15 01:38:24;;;;;;;15.43;11.23;;;;;;;4.30;85.36;101174.75;5032458;28;20566;-42
2023/03/15 01:40:49;;;;;;;14.73;11.10;;;;;;;4.26;86.85;101168.13;5042962;28;20124;-40
2023/03/15 01:43:20;;;;;;;14.38;10.88;;;;;;;4.20;86.07;101176.28;5037032;28;20360;-41
2023/03/15 01:46:03;;;;;;;13.88;10.73;;;;;;;4.18;86.59;101162.00;5052296;28;20500;-42
2023/03/15 01:48:37;;;;;;;14.27;11.00;;;;;;;4.21;87.35;101175.19;5052221;28;20021;-41
2023/03/15 01:51:10;;;;;;;13.65;10.90;;;;;;;4.11;88.83;101177.00;5049189;28;20067;-40
2023/03/15 01:53:36;;;;;;;13.40;10.90;;;;;;;4.04;86.05;101180.72;5030724;28;20031;-41
2023/03/15 01:56:03;;;;;;;15.18;11.40;;;;;;;4.08;87.24;101175.56;5045185;28;20387;-41
2023/03/15 01:58:28;;;;;;;13.38;10.85;;;;;;;4.25;88.31;101169.22;5051960;28;20032;-41
2023/03/15 02:00:54;;;;;;;14.57;11.02;;;;;;;4.30;85.44;101182.97;5051791;28;20487;-41
2023/03/15 02:03:29;;;;;;;14.77;11.00;;;;;;;4.36;88.29;101184.66;5047563;28;20091;-41
2023/03/15 02:06:03;;;;;;;15.52;11.00;;;;;;;4.36;85.06;101181.94;5034338;28;20037;-41
2023/03/15 02:08:32;;;;;;;14.70;11.05;;;;;;;4.28;86.30;101191.44;5045467;28;20450;-41
2023/03/15 02:11:00;;;;;;;14.88;11.00;;;;;;;4.27;86.78;101188.94;5044857;28;20476;-41
2023/03/15 02:13:28;;;;;;;14.20;10.90;;;;;;;4.43;88.16;101188.06;5031903;28;20048;-41
2023/03/15 02:15:55;;;;;;;13.52;10.57;;;;;;;4.55;86.24;101187.91;5042556;28;20480;-41
2023/03/15 02:18:21;;;;;;;14.30;11.00;;;;;;;4.50;85.80;101185.94;5039229;28;20083;-40
2023/03/15 02:21:00;;;;;;;14.25;10.80;;;;;;;4.43;85.21;101200.91;5041548;28;20443;-41
2023/03/15 02:23:27;;;;;;;13.30;10.77;;;;;;;4.39;87.52;101203.34;5031921;28;20045;-40
2023/03/15 02:26:11;;;;;;;13.00;10.60;;;;;;;4.34;84.90;101200.56;5051621;28;20506;-42
2023/03/15 02:28:37;;;;;;;13.85;11.00;;;;;;;4.12;84.88;101200.53;5071451;28;20097;-41
2023/03/15 02:31:03;;;;;;;14.38;10.90;;;;;;;3.94;86.82;101188.81;5052760;28;20036;-40
2023/03/15 02:33:33;;;;;;;14.63;11.10;;;;;;;3.86;86.93;101192.81;5046044;28;20029;-41
2023/03/15 02:36:19;;;;;;;14.43;11.40;;;;;;;3.81;87.41;101191.94;5034011;28;20395;-40
2023/03/15 02:38:45;;;;;;;14.77;11.20;;;;;;;3.70;88.61;101194.50;5031517;28;20022;-40
2023/03/15 02:41:11;;;;;;;14.80;11.20;;;;;;;3.65;89.74;101191.69;5057988;28;20036;-41
2023/03/15 02:43:38;;;;;;;17.10;11.73;;;;;;;3.64;90.62;101200.16;5026871;28;20045;-40
2023/03/15 02:46:05;;;;;;;16.70;11.80;;;;;;;3.63;91.11;101196.59;5042116;28;20053;-41
2023/03/15 02:48:34;;;;;;;18.00;12.20;;;;;;;3.69;90.70;101200.22;5039634;28;20041;-41
2023/03/15 02:51:00;;;;;;;17.33;11.68;;;;;;;3.73;89.82;101204.13;5047155;28;20033;-40
2023/03/15 02:53:28;;;;;;;16.73;11.77;;;;;;;3.60;90.27;101199.84;5032226;28;20056;-41
2023/03/15 02:55:54;;;;;;;17.40;11.82;;;;;;;3.61;90.60;101211.59;5040245;28;20029;-41
2023/03/15 02:58:19;;;;;;;16.48;11.70;;;;;;;3.59;90.43;101222.78;5041357;28;20029;-41
2023/03/15 03:00:44;;;;;;;17.58;11.70;;;;;;;3.54;91.59;101214.53;5038617;28;20029;-41
2023/03/15 03:03:10;;;;;;;17.17;11.80;;;;;;;3.54;91.42;101220.00;5034943;28;20388;-41
2023/03/15 03:05:36;;;;;;;16.48;11.80;;;;;;;3.54;91.75;101222.72;5037082;28;20029;-41
2023/03/15 03:08:01;;;;;;;16.25;11.65;;;;;;;3.58;91.91;101221.97;5055213;28;20048;-41
2023/03/15 03:10:27;;;;;;;16.70;12.23;;;;;;;3.64;92.66;101220.13;5049136;28;20033;-42
2023/03/15 03:12:53;;;;;;;18.10;12.63;;;;;;;3.72;92.53;101236.16;5041555;28;20112;-41
2023/03/15 03:15:19;;;;;;;16.95;12.30;;;;;;;3.75;92.19;101238.34;5036610;28;20030;-41
2023/03/15 03:17:44;;;;;;;17.45;12.23;;;;;;;3.74;92.45;101242.16;5051073;28;20036;-42
2023/03/15 03:20:12;;;;;;;18.52;12.73;;;;;;;3.73;92.06;101254.19;5042561;28;20053;-41
2023/03/15 03:22:38;;;;;;;19.17;12.55;;;;;;;3.77;92.86;101254.56;5043792;28;20037;-41
2023/03/15 03:25:05;;;;;;;17.98;12.60;;;;;;;3.83;92.56;101253.53;5049574;28;20037;-41
2023/03/15 03:27:31;;;;;;;17.67;12.43;;;;;;;3.90;93.10;101258.84;5037996;28;20088;-41
2023/03/15 03:29:57;;;;;;;17.83;12.60;;;;;;;3.96;92.81;101262.50;5074602;28;20052;-41
2023/03/15 03:32:23;;;;;;;18.77;12.85;;;;;;;3.97;92.42;101270.44;5047203;28;20029;-41
2023/03/15 03:34:48;;;;;;;19.35;13.23;;;;;;;3.98;92.30;101263.03;5034953;28;20030;-42
2023/03/15 03:37:18;;;;;;;18.80;13.60;;;;;;;3.96;92.29;101273.44;5036908;28;20022;-42
2023/03/15 03:39:43;;;;;;;19.05;13.88;;;;;;;3.90;91.51;101272.53;5034727;28;20053;-42
2023/03/15 03:42:09;;;;;;;20.90;15.27;;;;;;;3.85;91.47;101277.91;5045125;28;20060;-43
2023/03/15 03:44:34;;;;;;;20.85;15.10;;;;;;;3.78;92.52;101299.16;5039546;28;20036;-41
2023/03/15 03:47:00;;;;;;;21.70;16.00;;;;;;;3.70;92.77;101289.44;5056279;28;20499;-41
2023/03/15 03:49:25;;;;;;;21.85;16.45;;;;;;;3.63;93.60;101283.31;5038029;28;20055;-41
2023/03/15 03:51:50;;;;;;;22.02;16.92;;;;;;;3.63;93.82;101295.09;5048013;28;20778;-42
2023/03/15 03:54:16;;;;;;;23.25;16.85;;;;;;;3.53;93.75;101278.50;5054070;28;20705;-41
2023/03/15 03:56:41;;;;;;;23.40;17.02;;;;;;;3.44;94.44;101272.63;5054061;28;20021;-41
2023/03/15 03:59:06;;;;;;;23.02;17.08;;;;;;;3.57;94.51;101299.66;5053961;28;20059;-41
2023/03/15 04:01:32;;;;;;;23.60;16.88;;;;;;;3.56;94.32;101300.72;5047724;28;20025;-42
2023/03/15 04:03:58;;;;;;;23.05;17.48;;;;;;;3.52;94.94;101306.94;5034100;28;20148;-41
2023/03/15 04:06:23;;;;;;;23.33;17.23;;;;;;;3.47;95.05;101294.00;5036169;28;20084;-41
2023/03/15 04:08:48;;;;;;;24.02;17.40;;;;;;;3.45;95.53;101314.50;5034099;28;20025;-41
2023/03/15 04:11:16;;;;;;;22.90;16.88;;;;;;;3.40;95.06;101312.50;5041538;28;20017;-41
2023/03/15 04:13:42;;;;;;;25.00;18.08;;;;;;;3.42;95.71;101315.78;5053318;28;20064;-41
2023/03/15 04:16:07;;;;;;;23.20;18.02;;;;;;;3.39;95.53;101319.03;5036008;28;20063;-41
2023/03/15 04:18:33;;;;;;;22.17;16.50;;;;;;;3.33;95.23;101314.53;5041299;28;20036;-41
2023/03/15 04:20:58;;;;;;;23.90;16.88;;;;;;;3.35;96.40;101329.66;5047334;28;20579;-40
2023/03/15 04:23:23;;;;;;;23.20;17.23;;;;;;;3.32;95.28;101329.28;5053645;28;20037;-41
2023/03/15 04:25:51;;;;;;;23.30;16.80;;;;;;;3.31;96.22;101338.59;5039090;28;20506;-41
2023/03/15 04:28:17;;;;;;;21.05;16.08;;;;;;;3.27;95.11;101344.53;5049009;28;20021;-41
2023/03/15 04:30:43;;;;;;;21.98;16.48;;;;;;;3.25;96.20;101345.84;5042032;28;20075;-41
2023/03/15 04:33:09;;;;;;;21.23;15.85;;;;;;;3.21;95.62;101363.81;5053211;28;20028;-40
2023/03/15 04:35:37;;;;;;;21.50;16.23;;;;;;;3.12;96.67;101336.88;5051837;28;20031;-41
2023/03/15 04:38:03;;;;;;;21.90;14.93;;;;;;;3.13;96.08;101351.34;5050806;28;20063;-41
2023/03/15 04:40:33;;;;;;;21.27;15.57;;;;;;;3.09;95.86;101356.47;5032007;28;20029;-41
2023/03/15 04:43:00;;;;;;;22.15;15.20;;;;;;;3.05;96.00;101365.41;5059608;28;20056;-41
2023/03/15 04:45:26;;;;;;;20.92;15.15;;;;;;;3.00;95.87;101362.59;5053268;28;20048;-40
2023/03/15 04:47:52;;;;;;;20.30;15.05;;;;;;;2.97;96.18;101366.66;5053090;28;20029;-41
2023/03/15 04:50:19;;;;;;;20.67;14.80;;;;;;;2.99;95.97;101367.22;5033375;28;20037;-41
2023/03/15 04:52:44;;;;;;;21.67;15.40;;;;;;;2.95;95.46;101366.88;5050731;28;20404;-41
2023/03/15 04:55:10;;;;;;;20.95;14.82;;;;;;;2.93;96.20;101371.72;5052876;28;20043;-41
2023/03/15 04:57:36;;;;;;;21.00;15.27;;;;;;;2.95;96.35;101376.97;5053118;28;20250;-41
2023/03/15 05:00:06;;;;;;;20.67;15.13;;;;;;;2.93;96.57;101381.84;5035551;28;20025;-41
2023/03/15 05:02:31;;;;;;;22.17;15.80;;;;;;;2.92;97.06;101385.66;5043786;28;20045;-41
2023/03/15 05:04:57;;;;;;;22.33;15.65;;;;;;;2.91;96.18;101389.44;5032549;28;20021;-41
2023/03/15 05:07:22;;;;;;;22.05;15.88;;;;;;;2.87;95.54;101391.84;5033678;28;20030;-41
2023/03/15 05:09:47;;;;;;;22.05;15.80;;;;;;;2.88;95.88;101390.78;5048062;28;20396;-40
2023/03/15 05:12:13;;;;;;;21.95;15.73;;;;;;;2.82;95.80;101394.47;5046450;28;20025;-41
2023/03/15 05:14:38;;;;;;;23.35;16.05;;;;;;;2.88;95.99;101409.09;5057837;28;20026;-41
2023/03/15 05:17:04;;;;;;;22.80;15.35;;;;;;;2.82;95.85;101408.16;5053683;28;20564;-41
2023/03/15 05:19:33;;;;;;;23.75;15.98;;;;;;;2.81;95.73;101414.69;5032476;28;20060;-41
2023/03/15 05:22:02;;;;;;;21.45;15.35;;;;;;;2.79;96.34;101406.69;5040882;28;20025;-41
2023/03/15 05:24:28;;;;;;;21.48;15.10;;;;;;;2.84;96.59;101408.72;5036013;28;20032;-41
2023/03/15 05:26:54;;;;;;;22.98;15.48;;;;;;;2.86;96.32;101408.50;5052577;28;20447;-41
2023/03/15 05:29:21;;;;;;;22.35;15.63;;;;;;;2.86;95.70;101408.50;5051835;28;20031;-41
2023/03/15 05:31:47;;;;;;;21.60;15.43;;;;;;;2.79;95.85;101409.44;5052506;28;20107;-41
2023/03/15 05:34:13;;;;;;;22.60;15.65;;;;;;;2.75;95.97;101418.34;5035350;28;20392;-41
2023/03/15 05:36:38;;;;;;;22.70;16.17;;;;;;;2.66;95.87;101415.16;5034479;28;20477;-41
2023/03/15 05:39:04;;;;;;;23.75;16.50;;;;;;;2.64;96.26;101422.75;5032344;28;20076;-40
2023/03/15 05:41:30;;;;;;;23.50;16.50;;;;;;;2.61;96.10;101421.34;5032305;28;20029;-41
2023/03/15 05:43:56;;;;;;;22.38;16.90;;;;;;;2.59;96.75;101428.94;5038008;28;20025;-41
2023/03/15 05:46:22;;;;;;;23.05;16.27;;;;;;;2.58;96.73;101429.19;5034450;28;20106;-41
2023/03/15 05:48:48;;;;;;;24.05;16.77;;;;;;;2.53;96.76;101427.16;5041664;28;20483;-41
2023/03/15 05:51:13;;;;;;;22.42;16.58;;;;;;;2.54;96.29;101438.91;5057396;28;20029;-41
2023/03/15 05:53:39;;;;;;;23.17;17.20;;;;;;;2.49;95.95;101442.34;5048923;28;20388;-41
2023/03/15 05:56:04;;;;;;;23.38;17.02;;;;;;;2.47;96.65;101442.59;5032629;28;20026;-41
2023/03/15 05:58:30;;;;;;;22.73;17.00;;;;;;;2.47;96.12;101450.81;5032689;28;20032;-39
2023/03/15 06:00:55;;;;;;;24.00;17.08;;;;;;;2.47;97.08;101456.25;5046761;28;20376;-41
2023/03/15 06:03:20;;;;;;;23.17;17.42;;;;;;;2.43;96.77;101444.13;5050772;28;20029;-41
2023/03/15 06:05:46;;;;;;;23.52;17.30;;;;;;;2.47;96.95;101453.53;5051826;28;20492;-42
2023/03/15 06:08:11;;;;;;;22.55;16.80;;;;;;;2.49;96.64;101461.47;5036809;28;20041;-41
2023/03/15 06:10:36;;;;;;;24.50;17.58;;;;;;;2.48;96.53;101462.53;5030785;28;20469;-41
2023/03/15 06:13:02;;;;;;;25.23;18.20;;;;;;;2.53;96.87;101459.94;5047533;28;20033;-41
2023/03/15 06:15:27;;;;;;;23.95;17.50;;;;;;;2.52;96.40;101469.22;5042923;28;20837;-41
2023/03/15 06:17:53;;;;;;;23.70;17.63;;;;;;;2.53;96.08;101462.69;5033754;28;20396;-41
2023/03/15 06:20:18;;;;;;;24.08;17.65;;;;;;;2.54;96.24;101469.81;5047180;28;20461;-41
2023/03/15 06:22:44;;;;;;;26.10;17.35;;;;;;;2.54;96.24;101478.00;5045115;28;20128;-43
2023/03/15 06:25:09;;;;;;;25.30;18.02;;;;;;;2.56;96.87;101485.94;5051678;28;20033;-40
2023/03/15 06:27:35;;;;;;;27.70;18.48;;;;;;;2.57;96.89;101482.16;5042598;28;20041;-41
2023/03/15 06:30:01;;;;;;;25.10;17.90;;;;;;;2.60;97.16;101490.72;5031935;28;20369;-41
2023/03/15 06:32:27;;;;;;;23.80;17.45;;;;;;;2.62;97.03;101494.03;5041374;28;20041;-39
2023/03/15 06:34:52;;;;;;;23.90;17.08;;;;;;;2.64;97.24;101502.00;5031995;28;20055;-38
2023/03/15 06:37:17;;;;;;;25.25;17.48;;;;;;;2.67;97.60;101509.72;5030017;28;20026;-40
2023/03/15 06:39:43;;;;;;;25.35;17.85;;;;;;;2.70;98.14;101508.41;5036231;28;20473;-40
2023/03/15 06:42:12;;;;;;;26.67;18.35;;;;;;;2.73;98.28;101510.69;5040754;28;20093;-41
2023/03/15 06:44:39;;;;;;;26.40;18.17;;;;;;;2.78;97.59;101527.19;5054857;28;20066;-40
2023/03/15 06:47:05;;;;;;;28.17;18.52;;;;;;;2.79;98.31;101520.66;5037220;28;20100;-41
2023/03/15 06:49:31;;;;;;;24.50;18.15;;;;;;;2.83;98.39;101524.59;5035743;28;20033;-42
2023/03/15 06:51:56;;;;;;;25.67;18.70;;;;;;;2.86;98.09;101535.03;5039836;28;20472;-41
2023/03/15 06:54:22;;;;;;;25.15;18.40;;;;;;;2.86;97.69;101532.28;5039600;28;20112;-41
2023/03/15 06:56:48;;;;;;;24.00;17.33;;;;;;;2.89;98.16;101542.75;5036986;28;20044;-41
2023/03/15 06:59:13;;;;;;;23.60;16.77;;;;;;;2.93;98.62;101552.13;5037912;28;20032;-41
2023/03/15 07:01:38;;;;;;;24.40;16.63;;;;;;;2.99;98.78;101561.28;5043298;28;20085;-40
2023/03/15 07:04:04;;;;;;;26.20;16.98;;;;;;;3.04;99.16;101555.09;5044092;28;20022;-41
2023/03/15 07:06:29;;;;;;;26.35;17.52;;;;;;;3.08;98.98;101564.50;5035283;28;20481;-41
2023/03/15 07:08:54;;;;;;;24.77;17.23;;;;;;;3.14;99.36;101570.94;5036810;28;20357;-41
2023/03/15 07:11:20;;;;;;;25.85;18.13;;;;;;;3.19;99.18;101569.16;5035289;28;20060;-40
2023/03/15 07:13:45;;;;;;;26.05;17.90;;;;;;;3.30;99.55;101567.47;5053340;28;20020;-41
2023/03/15 07:16:11;;;;;;;26.25;17.52;;;;;;;3.42;99.19;101578.38;5042038;28;20040;-40
2023/03/15 07:18:36;;;;;;;32.30;18.15;;;;;;;3.52;98.76;101575.88;5066998;28;20036;-40
2023/03/15 07:21:03;;;;;;;24.50;17.60;;;;;;;3.61;98.80;101589.16;5037894;28;20516;-42
2023/03/15 07:23:29;;;;;;;28.85;18.25;;;;;;;3.73;99.87;101595.47;5044962;28;20503;-40
2023/03/15 07:25:55;;;;;;;25.10;17.48;;;;;;;3.91;99.98;101594.47;5034776;28;20061;-41
2023/03/15 07:28:21;;;;;;;23.17;16.15;;;;;;;4.21;99.05;101598.88;5048361;28;20062;-42
2023/03/15 07:31:01;;;;;;;23.20;16.27;;;;;;;4.37;96.96;101589.88;5069297;28;20075;-41
2023/03/15 07:33:29;;;;;;;24.40;15.43;;;;;;;4.60;96.99;101609.16;5052785;28;20056;-41
2023/03/15 07:35:54;;;;;;;24.30;15.57;;;;;;;4.72;95.81;101606.34;5033554;28;20055;-40
2023/03/15 07:38:22;;;;;;;20.65;14.65;;;;;;;4.72;93.67;101614.56;5047922;28;20029;-41
2023/03/15 07:40:47;;;;;;;25.33;15.65;;;;;;;4.77;92.79;101615.50;5041112;28;20404;-42
2023/03/15 07:43:12;;;;;;;23.27;14.90;;;;;;;4.88;94.09;101618.41;5059730;28;20052;-40
2023/03/15 07:45:38;;;;;;;21.95;14.82;;;;;;;5.03;92.29;101631.56;5038863;28;20032;-40
2023/03/15 07:48:03;;;;;;;21.83;14.20;;;;;;;5.07;91.14;101628.06;5043351;28;20045;-41
2023/03/15 07:50:29;;;;;;;22.08;14.65;;;;;;;4.98;90.43;101635.03;5045700;28;20036;-40
2023/03/15 07:52:54;;;;;;;22.95;15.50;;;;;;;4.97;90.36;101633.38;5041591;28;20102;-40
2023/03/15 07:55:19;;;;;;;20.95;14.02;;;;;;;4.94;89.16;101637.44;5032203;28;20037;-40
2023/03/15 07:57:45;;;;;;;23.05;15.15;;;;;;;4.91;88.54;101645.34;5033563;28;20804;-40
2023/03/15 08:00:12;;;;;;;23.98;15.55;;;;;;;4.95;90.85;101646.50;5031778;28;20030;-41
2023/03/15 08:02:38;;;;;;;21.77;14.30;;;;;;;4.95;88.79;101649.25;5038226;28;20390;-40
2023/03/15 08:05:03;;;;;;;20.42;13.52;;;;;;;4.98;89.38;101646.81;5035459;28;20473;-40
2023/03/15 08:07:29;;;;;;;18.83;12.93;;;;;;;5.11;88.67;101650.31;5033266;28;20076;-41
2023/03/15 08:09:56;;;;;;;21.27;13.15;;;;;;;5.25;87.56;101659.06;5032069;28;20034;-41
2023/03/15 08:12:22;;;;;;;20.27;13.20;;;;;;;5.29;86.85;101673.94;5035210;28;20033;-40
2023/03/15 08:14:48;;;;;;;19.95;12.80;;;;;;;5.26;86.60;101674.44;5037908;28;20396;-40
2023/03/15 08:17:15;;;;;;;20.85;13.20;;;;;;;5.21;86.08;101680.66;5031641;28;20176;-40
2023/03/15 08:19:40;;;;;;;20.02;12.77;;;;;;;5.31;86.23;101683.59;5031729;28;20037;-41
2023/03/15 08:22:07;;;;;;;18.95;12.48;;;;;;;5.34;86.44;101689.66;5030757;28;20029;-40
2023/03/15 08:24:32;;;;;;;19.85;13.02;;;;;;;5.32;85.58;101698.13;5040849;28;20060;-40
2023/03/15 08:26:58;;;;;;;18.55;12.05;;;;;;;5.27;85.02;101692.56;5044304;28;20064;-40
2023/03/15 08:29:23;;;;;;;18.73;11.77;;;;;;;5.22;84.41;101689.72;5034377;28;20037;-40
2023/03/15 08:31:48;;;;;;;19.73;11.77;;;;;;;5.28;85.66;101696.97;5030048;28;20376;-40
2023/03/15 08:34:14;;;;;;;19.17;12.23;;;;;;;5.44;85.23;101698.03;5041109;28;20041;-40
2023/03/15 08:36:40;;;;;;;21.20;12.10;;;;;;;5.45;84.69;101702.44;5031567;28;20021;-39
2023/03/15 08:39:05;;;;;;;20.05;12.40;;;;;;;5.37;83.64;101703.72;5030687;28;20403;-40
2023/03/15 08:41:31;;;;;;;19.23;12.10;;;;;;;5.29;83.96;101704.94;5030974;28;20037;-40
2023/03/15 08:43:56;;;;;;;19.88;12.25;;;;;;;5.22;84.28;101698.78;5041411;28;20049;-44
2023/03/15 08:46:22;;;;;;;18.40;11.65;;;;;;;5.27;85.20;101704.34;5031650;28;20113;-39
2023/03/15 08:48:47;;;;;;;19.48;11.70;;;;;;;5.31;84.24;101704.69;5032847;28;20037;-39
2023/03/15 08:51:13;;;;;;;19.05;11.52;;;;;;;5.30;83.12;101708.50;5030849;28;20033;-41
2023/03/15 08:53:39;;;;;;;19.40;11.32;;;;;;;5.34;82.75;101715.16;5040887;28;20033;-40
2023/03/15 08:56:05;;;;;;;18.45;11.40;;;;;;;5.33;81.00;101721.72;5042480;28;20064;-41
2023/03/15 08:58:30;;;;;;;17.13;10.73;;;;;;;5.39;79.83;101726.22;5046067;28;20484;-40
2023/03/15 09:00:56;;;;;;;20.90;11.90;;;;;;;5.37;81.06;101722.06;5032515;28;20463;-39
2023/03/15 09:03:22;;;;;;;20.65;11.73;;;;;;;5.42;81.61;101722.16;5032150;28;20477;-39
2023/03/15 09:05:48;;;;;;;19.70;11.55;;;;;;;5.46;81.05;101732.41;5030421;28;20026;-39
2023/03/15 09:08:15;;;;;;;20.85;11.90;;;;;;;5.47;80.46;101736.81;5036965;28;20483;-40
2023/03/15 09:10:41;;;;;;;20.75;11.05;;;;;;;5.54;80.07;101733.03;5034520;28;20033;-40
2023/03/15 09:13:07;;;;;;;19.13;11.23;;;;;;;5.59;78.98;101733.13;5033931;28;20067;-40
2023/03/15 09:15:32;;;;;;;17.52;11.20;;;;;;;5.65;80.41;101734.88;5030460;28;20025;-40
2023/03/15 09:17:57;;;;;;;20.20;11.32;;;;;;;5.77;80.86;101730.09;5035146;28;20470;-41
2023/03/15 09:20:26;;;;;;;23.48;13.32;;;;;;;5.79;78.53;101735.34;5037220;28;20061;-41
2023/03/15 09:22:54;;;;;;;20.80;10.68;;;;;;;5.73;76.11;101728.09;5033861;28;20140;-41
2023/03/15 09:25:21;;;;;;;19.38;10.70;;;;;;;5.74;76.33;101729.78;5030274;28;20028;-40
2023/03/15 09:27:46;;;;;;;21.02;10.80;;;;;;;5.75;78.52;101726.78;5032835;28;20068;-40
2023/03/15 09:30:12;;;;;;;20.73;10.82;;;;;;;5.82;78.30;101736.75;5039345;28;20140;-39
2023/03/15 09:32:38;;;;;;;21.77;11.30;;;;;;;5.89;77.91;101734.66;5031856;28;20029;-40
2023/03/15 09:35:06;;;;;;;18.77;10.70;;;;;;;5.86;76.20;101726.91;5032501;28;20040;-40
2023/03/15 09:37:33;;;;;;;20.58;11.05;;;;;;;5.96;77.56;101734.50;5028571;28;20026;-40
2023/03/15 09:40:01;;;;;;;18.85;10.90;;;;;;;5.98;76.89;101735.88;5056620;28;20029;-40
2023/03/15 09:42:45;;;;;;;18.27;10.82;;;;;;;6.01;73.87;101734.56;5030831;28;20076;-41
2023/03/15 09:45:36;;;;;;;18.15;10.55;;;;;;;6.06;75.38;101742.91;5029025;28;20527;-41
2023/03/15 09:48:13;;;;;;;20.20;11.20;;;;;;;6.15;77.40;101743.28;5032364;28;20051;-40
2023/03/15 09:50:53;;;;;;;20.65;11.30;;;;;;;6.17;74.26;101738.38;5035312;28;20048;-43
2023/03/15 09:53:26;;;;;;;19.98;10.90;;;;;;;6.21;76.17;101743.09;5046992;28;20025;-43
2023/03/15 09:55:52;;;;;;;19.48;11.25;;;;;;;6.27;75.13;101743.19;5032619;28;20104;-41
2023/03/15 09:58:25;;;;;;;20.25;11.02;;;;;;;6.26;75.64;101736.84;5042396;28;20112;-40
2023/03/15 10:00:59;;;;;;;19.65;11.07;;;;;;;6.38;75.28;101744.94;5045580;28;20025;-40
2023/03/15 10:03:41;;;;;;;;;;;;;;;6.51;76.10;101752.81;5052630;28;20037;-40
2023/03/15 10:06:33;;;;;;;17.70;10.20;;;;;;;6.56;73.50;101750.13;5052364;28;19916;-41
2023/03/15 10:09:02;;;;;;;20.90;11.02;;;;;;;6.64;73.53;101754.34;5051481;28;20025;-40
2023/03/15 10:11:38;;;;;;;18.77;11.00;;;;;;;6.71;74.04;101748.66;5052076;28;20029;-41
2023/03/15 10:14:27;;;;;;;19.27;10.88;;;;;;;6.84;74.84;101740.00;5052094;28;20384;-41
2023/03/15 10:16:52;;;;;;;17.70;10.80;;;;;;;6.95;72.49;101751.09;5051980;28;20547;-41
2023/03/15 10:19:40;;;;;;;18.58;11.00;;;;;;;6.97;70.41;101747.00;5051517;28;20115;-42
2023/03/15 10:22:21;;;;;;;18.55;10.93;;;;;;;6.92;70.43;101743.38;5052116;28;20029;-41
2023/03/15 10:24:53;;;;;;;19.45;11.05;;;;;;;6.97;71.47;101749.78;5051955;28;20029;-40
2023/03/15 10:27:21;;;;;;;23.25;11.30;;;;;;;7.09;71.93;101765.25;5051959;28;20064;-41
2023/03/15 10:29:51;;;;;;;20.67;10.88;;;;;;;7.25;71.47;101750.59;5051741;28;20479;-43
2023/03/15 10:32:19;;;;;;;18.58;10.52;;;;;;;7.43;72.64;101752.09;5051868;28;20033;-40
2023/03/15 10:34:49;;;;;;;20.83;11.15;;;;;;;7.46;70.44;101756.28;5050486;28;20415;-40
2023/03/15 10:37:14;;;;;;;19.38;10.57;;;;;;;7.54;66.63;101755.78;5051904;28;20021;-40
2023/03/15 10:39:45;;;;;;;19.90;10.88;;;;;;;7.55;67.71;101760.19;5051693;28;20464;-40
2023/03/15 10:42:30;;;;;;;18.02;10.73;;;;;;;7.68;70.87;101758.91;5051752;28;20400;-40
2023/03/15 10:44:56;;;;;;;19.33;10.90;;;;;;;7.71;67.86;101772.13;5050541;28;20033;-40
2023/03/15 10:47:24;;;;;;;19.52;10.75;;;;;;;7.70;66.31;101767.72;5051643;28;20021;-40
2023/03/15 10:49:55;;;;;;;18.58;10.65;;;;;;;7.65;63.49;101771.25;5050279;28;20480;-40
2023/03/15 10:52:42;;;;;;;18.45;10.15;;;;;;;7.68;66.36;101771.84;5051690;28;20036;-40
2023/03/15 10:55:14;;;;;;;19.20;10.30;;;;;;;7.62;62.60;101779.22;5051556;28;20381;-41
2023/03/15 10:57:51;;;;;;;18.05;10.32;;;;;;;7.66;66.42;101783.13;5051460;28;20032;-40
2023/03/15 11:00:35;;;;;;;16.48;10.23;;;;;;;7.60;64.41;101787.75;5050133;28;20134;-41
2023/03/15 11:03:13;;;;;;;20.20;10.50;;;;;;;7.59;66.09;101785.28;5051473;28;20143;-41
2023/03/15 11:05:43;;;;;;;14.95;10.05;;;;;;;7.61;62.26;101794.09;5051469;28;20036;-41
2023/03/15 11:08:17;;;;;;;16.40;10.00;;;;;;;7.58;65.19;101772.59;5051661;28;20029;-41
2023/03/15 11:10:45;;;;;;;17.27;10.18;;;;;;;7.73;63.90;101794.75;5051381;28;20025;-40
2023/03/15 11:13:12;;;;;;;15.95;9.90;;;;;;;7.78;62.60;101793.97;5050218;28;20160;-40
2023/03/15 11:15:39;;;;;;;16.45;9.95;;;;;;;7.77;60.95;101797.81;5047003;28;20025;-40
2023/03/15 11:18:05;;;;;;;18.95;10.25;;;;;;;7.75;61.06;101798.06;5048824;28;20498;-40